createdAt,value
2018-09-08T00:00:50.434Z,100753.38
2018-09-08T00:03:19.352Z,100761.44
2018-09-08T00:05:48.509Z,100756.81
2018-09-08T00:08:17.450Z,100761.91
2018-09-08T00:10:46.276Z,100766.63
2018-09-08T00:13:15.127Z,100759.13
2018-09-08T00:15:49.099Z,100758.92
2018-09-08T00:18:23.192Z,100758.23
2018-09-08T00:20:57.416Z,100753.31
2018-09-08T00:23:31.421Z,100755.91
2018-09-08T00:26:05.764Z,100758.63
2018-09-08T00:28:45.636Z,100764.17
2018-09-08T00:31:17.967Z,100767.43
2018-09-08T00:33:47.811Z,100765.90
2018-09-08T00:36:17.497Z,100760.81
2018-09-08T00:38:46.764Z,100763.41
2018-09-08T00:41:15.864Z,100766.25
2018-09-08T00:43:44.840Z,100767.05
2018-09-08T00:46:13.642Z,100767.94
2018-09-08T00:48:42.564Z,100767.64
2018-09-08T00:53:39.548Z,100765.81
2018-09-08T00:56:08.659Z,100764.75
2018-09-08T00:58:37.792Z,100767.23
2018-09-08T01:01:06.876Z,100768.18
2018-09-08T01:03:36.210Z,100769.77
2018-09-08T01:06:05.062Z,100774.55
2018-09-08T01:08:33.920Z,100781.48
2018-09-08T01:11:03.277Z,100771.52
2018-09-08T01:13:32.225Z,100767.42
2018-09-08T01:16:01.499Z,100772.42
2018-09-08T01:18:30.593Z,100766.63
2018-09-08T01:20:59.830Z,100766.25
2018-09-08T01:23:28.808Z,100766.52
2018-09-08T01:25:58.164Z,100767.22
2018-09-08T01:28:27.149Z,100760.87
2018-09-08T01:30:56.035Z,100757.53
2018-09-08T01:33:24.948Z,100760.47
2018-09-08T01:35:53.888Z,100760.84
2018-09-08T01:38:22.754Z,100765.34
2018-09-08T01:40:51.603Z,100760.64
2018-09-08T01:43:20.628Z,100755.44
2018-09-08T01:45:49.485Z,100757.68
2018-09-08T01:48:18.396Z,100754.63
2018-09-08T01:50:47.602Z,100755.90
2018-09-08T01:53:16.531Z,100752.50
2018-09-08T01:55:45.712Z,100759.66
2018-09-08T01:58:14.952Z,100756.02
2018-09-08T02:00:44.912Z,100755.44
2018-09-08T02:03:13.883Z,100752.42
2018-09-08T02:05:42.731Z,100756.62
2018-09-08T02:08:11.660Z,100762.17
2018-09-08T02:10:40.548Z,100756.91
2018-09-08T02:13:09.488Z,100761.31
2018-09-08T02:15:38.312Z,100768.16
2018-09-08T02:18:07.243Z,100771.88
2018-09-08T02:20:36.167Z,100772.59
2018-09-08T02:23:05.438Z,100777.11
2018-09-08T02:25:34.352Z,100785.13
2018-09-08T02:28:03.176Z,100788.80
2018-09-08T02:30:32.320Z,100794.48
2018-09-08T02:33:01.395Z,100791.82
2018-09-08T02:35:30.322Z,100795.56
2018-09-08T02:37:59.684Z,100795.27
2018-09-08T02:40:28.643Z,100793.20
2018-09-08T02:42:57.472Z,100791.81
2018-09-08T02:45:26.403Z,100790.56
2018-09-08T02:47:55.254Z,100799.03
2018-09-08T02:50:43.743Z,100792.31
2018-09-08T02:53:12.460Z,100793.87
2018-09-08T02:55:40.397Z,100793.94
2018-09-08T02:58:07.940Z,100801.27
2018-09-08T03:00:35.446Z,100806.26
2018-09-08T03:03:02.942Z,100810.06
2018-09-08T03:05:30.384Z,100812.10
2018-09-08T03:07:57.859Z,100814.73
2018-09-08T03:10:25.471Z,100819.34
2018-09-08T03:12:52.924Z,100813.97
2018-09-08T03:15:20.484Z,100813.00
2018-09-08T03:17:48.012Z,100815.78
2018-09-08T03:20:15.576Z,100820.27
2018-09-08T03:22:43.148Z,100823.49
2018-09-08T03:25:10.669Z,100816.84
2018-09-08T03:27:38.844Z,100818.70
2018-09-08T03:30:06.753Z,100819.08
2018-09-08T03:32:34.236Z,100820.76
2018-09-08T03:35:01.888Z,100821.32
2018-09-08T03:37:29.321Z,100828.66
2018-09-08T03:39:56.883Z,100826.22
2018-09-08T03:42:24.611Z,100835.88
2018-09-08T03:44:52.221Z,100828.09
2018-09-08T03:47:19.764Z,100830.41
2018-09-08T03:49:47.296Z,100832.06
2018-09-08T03:52:14.748Z,100838.92
2018-09-08T03:54:42.389Z,100836.78
2018-09-08T03:57:09.871Z,100843.42
2018-09-08T03:59:37.444Z,100843.11
2018-09-08T04:02:04.910Z,100845.27
2018-09-08T04:04:33.815Z,100843.14
2018-09-08T04:07:02.789Z,100843.04
2018-09-08T04:09:31.644Z,100846.76
2018-09-08T04:12:00.656Z,100848.81
2018-09-08T04:14:29.498Z,100850.48
2018-09-08T04:16:58.508Z,100853.30
2018-09-08T04:19:27.344Z,100859.94
2018-09-08T04:21:56.268Z,100863.38
2018-09-08T04:24:25.261Z,100863.18
2018-09-08T04:26:54.229Z,100865.15
2018-09-08T04:29:23.669Z,100865.05
2018-09-08T04:31:52.696Z,100864.77
2018-09-08T04:34:21.616Z,100861.73
2018-09-08T04:36:50.908Z,100863.48
2018-09-08T04:39:19.765Z,100870.20
2018-09-08T04:41:48.576Z,100871.97
2018-09-08T04:44:17.476Z,100877.03
2018-09-08T04:46:46.411Z,100871.06
2018-09-08T04:49:15.484Z,100873.23
2018-09-08T04:51:44.752Z,100884.09
2018-09-08T04:54:13.987Z,100875.56
2018-09-08T04:56:43.248Z,100878.61
2018-09-08T04:59:12.100Z,100880.95
2018-09-08T05:01:40.928Z,100883.68
2018-09-08T05:04:09.861Z,100882.14
2018-09-08T05:06:39.088Z,100879.19
2018-09-08T05:09:10.458Z,100888.19
2018-09-08T05:11:39.370Z,100879.77
2018-09-08T05:14:08.336Z,100885.34
2018-09-08T05:16:37.237Z,100881.79
2018-09-08T05:19:06.160Z,100872.58
2018-09-08T05:21:35.482Z,100876.99
2018-09-08T05:24:04.500Z,100876.61
2018-09-08T05:26:33.693Z,100876.06
2018-09-08T05:29:02.859Z,100884.25
2018-09-08T05:31:31.811Z,100882.55
2018-09-08T05:34:00.982Z,100880.13
2018-09-08T05:36:30.248Z,100889.05
2018-09-08T05:38:59.400Z,100889.17
2018-09-08T05:41:28.759Z,100888.10
2018-09-08T05:43:57.716Z,100886.41
2018-09-08T05:46:26.591Z,100887.84
2018-09-08T05:48:55.557Z,100891.81
2018-09-08T05:51:24.557Z,100891.28
2018-09-08T05:53:53.480Z,100889.66
2018-09-08T05:58:50.247Z,100886.73
2018-09-08T06:01:19.145Z,100891.52
2018-09-08T06:03:48.124Z,100888.22
2018-09-08T06:06:16.985Z,100892.36
2018-09-08T06:08:45.900Z,100886.61
2018-09-08T06:11:14.905Z,100890.94
2018-09-08T06:13:43.830Z,100894.48
2018-09-08T06:16:12.766Z,100899.62
2018-09-08T06:18:41.632Z,100900.41
2018-09-08T06:21:10.485Z,100899.38
2018-09-08T06:23:39.357Z,100904.89
2018-09-08T06:26:08.320Z,100908.69
2018-09-08T06:28:37.355Z,100915.29
2018-09-08T06:31:06.506Z,100914.81
2018-09-08T06:33:35.988Z,100916.64
2018-09-08T06:36:05.432Z,100916.42
2018-09-08T06:38:34.397Z,100923.23
2018-09-08T06:41:03.322Z,100919.84
2018-09-08T06:43:32.244Z,100920.75
2018-09-08T06:46:01.152Z,100921.25
2018-09-08T06:48:30.107Z,100917.12
2018-09-08T06:50:59.027Z,100922.34
2018-09-08T06:53:27.981Z,100923.72
2018-09-08T06:55:56.915Z,100919.23
2018-09-08T06:58:25.852Z,100923.55
2018-09-08T07:00:54.868Z,100923.56
2018-09-08T07:03:23.882Z,100929.94
2018-09-08T07:05:52.823Z,100930.73
2018-09-08T07:08:21.726Z,100938.66
2018-09-08T07:10:50.806Z,100937.66
2018-09-08T07:13:19.660Z,100937.46
2018-09-08T07:15:48.687Z,100939.86
2018-09-08T07:18:17.700Z,100935.59
2018-09-08T07:20:46.575Z,100936.96
2018-09-08T07:23:15.501Z,100939.27
2018-09-08T07:25:44.416Z,100938.56
2018-09-08T07:28:13.383Z,100942.80
2018-09-08T07:30:42.198Z,100945.98
2018-09-08T07:33:11.048Z,100949.55
2018-09-08T07:35:40.308Z,100949.17
2018-09-08T07:38:09.101Z,100943.48
2018-09-08T07:40:38.029Z,100948.48
2018-09-08T07:43:06.999Z,100940.89
2018-09-08T07:45:36.024Z,100939.20
2018-09-08T07:48:04.973Z,100949.31
2018-09-08T07:50:33.893Z,100940.08
2018-09-08T07:53:02.859Z,100945.89
2018-09-08T07:55:31.820Z,100939.90
2018-09-08T07:58:00.924Z,100937.69
2018-09-08T08:00:29.989Z,100932.97
2018-09-08T08:02:58.972Z,100930.36
2018-09-08T08:05:27.889Z,100937.55
2018-09-08T08:07:56.825Z,100941.86
2018-09-08T08:10:25.832Z,100949.34
2018-09-08T08:12:54.661Z,100946.97
2018-09-08T08:15:23.594Z,100942.63
2018-09-08T08:17:52.507Z,100937.55
2018-09-08T08:20:21.401Z,100943.07
2018-09-08T08:22:50.412Z,100950.55
2018-09-08T08:25:19.368Z,100954.84
2018-09-08T08:27:48.321Z,100946.99
2018-09-08T08:30:17.576Z,100946.55
2018-09-08T08:32:46.524Z,100940.52
2018-09-08T08:35:15.686Z,100940.12
2018-09-08T08:37:44.884Z,100942.78
2018-09-08T08:40:14.112Z,100945.21
2018-09-08T08:42:43.356Z,100948.87
2018-09-08T08:45:12.200Z,100942.98
2018-09-08T08:47:41.116Z,100939.90
2018-09-08T08:50:20.820Z,100939.56
2018-09-08T08:53:00.774Z,100944.59
2018-09-08T08:55:30.075Z,100951.06
2018-09-08T08:57:58.899Z,100952.39
2018-09-08T09:00:27.980Z,100960.41
2018-09-08T09:02:57.315Z,100959.31
2018-09-08T09:05:26.578Z,100960.94
2018-09-08T09:07:55.872Z,100960.92
2018-09-08T09:10:24.968Z,100954.45
2018-09-08T09:12:53.955Z,100953.79
2018-09-08T09:15:23.536Z,100953.70
2018-09-08T09:17:52.240Z,100947.22
2018-09-08T09:20:32.039Z,100952.23
2018-09-08T09:23:11.919Z,100951.91
2018-09-08T09:25:40.944Z,100945.94
2018-09-08T09:28:10.036Z,100945.72
2018-09-08T09:30:39.199Z,100949.48
2018-09-08T09:33:08.116Z,100952.50
2018-09-08T09:35:37.052Z,100955.74
2018-09-08T09:38:06.258Z,100943.39
2018-09-08T09:40:35.570Z,100947.93
2018-09-08T09:43:04.596Z,100943.72
2018-09-08T09:45:33.467Z,100941.94
2018-09-08T09:48:02.604Z,100939.97
2018-09-08T09:50:31.916Z,100936.36
2018-09-08T09:53:00.815Z,100934.70
2018-09-08T09:55:29.852Z,100932.03
2018-09-08T09:57:59.343Z,100923.65
2018-09-08T10:00:33.532Z,100924.17
2018-09-08T10:03:08.336Z,100918.62
2018-09-08T10:05:37.851Z,100921.64
2018-09-08T10:08:08.046Z,100925.02
2018-09-08T10:10:37.228Z,100924.67
2018-09-08T10:13:06.481Z,100917.08
2018-09-08T10:15:35.372Z,100918.68
2018-09-08T10:18:04.538Z,100916.13
2018-09-08T10:20:33.468Z,100914.92
2018-09-08T10:23:02.838Z,100920.42
2018-09-08T10:25:31.836Z,100925.99
2018-09-08T10:28:01.161Z,100925.90
2018-09-08T10:30:30.344Z,100918.39
2018-09-08T10:32:59.685Z,100914.46
2018-09-08T10:35:28.929Z,100916.33
2018-09-08T10:37:58.151Z,100916.98
2018-09-08T10:40:27.087Z,100915.09
2018-09-08T10:42:55.933Z,100910.20
2018-09-08T10:45:24.883Z,100908.41
2018-09-08T10:47:54.261Z,100912.94
2018-09-08T10:50:23.234Z,100909.84
2018-09-08T10:52:52.218Z,100907.23
2018-09-08T10:55:21.181Z,100909.93
2018-09-08T10:57:50.109Z,100898.70
2018-09-08T11:00:19.138Z,100904.97
2018-09-08T11:02:48.731Z,100904.73
2018-09-08T11:05:17.588Z,100911.48
2018-09-08T11:07:46.891Z,100917.31
2018-09-08T11:10:15.769Z,100926.56
2018-09-08T11:12:45.033Z,100931.39
2018-09-08T11:15:14.000Z,100936.27
2018-09-08T11:17:43.216Z,100936.17
2018-09-08T11:20:12.088Z,100929.84
2018-09-08T11:22:41.413Z,100925.89
2018-09-08T11:25:10.288Z,100926.75
2018-09-08T11:27:39.479Z,100929.25
2018-09-08T11:30:08.593Z,100921.67
2018-09-08T11:32:37.632Z,100930.17
2018-09-08T11:35:06.530Z,100933.56
2018-09-08T11:37:35.510Z,100936.70
2018-09-08T11:40:04.347Z,100930.01
2018-09-08T11:42:33.285Z,100928.33
2018-09-08T11:45:02.245Z,100930.30
2018-09-08T11:47:31.169Z,100925.77
2018-09-08T11:50:00.349Z,100941.05
2018-09-08T11:52:29.191Z,100933.38
2018-09-08T11:54:59.105Z,100930.97
2018-09-08T11:57:28.068Z,100922.70
2018-09-08T11:59:57.028Z,100920.33
2018-09-08T12:02:25.956Z,100917.03
2018-09-08T12:04:54.896Z,100929.20
2018-09-08T12:07:24.057Z,100936.44
2018-09-08T12:09:52.980Z,100928.21
2018-09-08T12:12:22.388Z,100924.29
2018-09-08T12:14:51.532Z,100928.44
2018-09-08T12:17:20.450Z,100923.39
2018-09-08T12:19:49.693Z,100916.70
2018-09-08T12:22:18.765Z,100905.52
2018-09-08T12:24:48.316Z,100905.94
2018-09-08T12:27:17.252Z,100898.16
2018-09-08T12:29:46.156Z,100903.08
2018-09-08T12:32:15.193Z,100900.59
2018-09-08T12:34:44.048Z,100898.57
2018-09-08T12:37:13.055Z,100899.17
2018-09-08T12:39:41.952Z,100903.43
2018-09-08T12:42:10.820Z,100902.20
2018-09-08T12:44:40.165Z,100914.38
2018-09-08T12:47:09.299Z,100905.87
2018-09-08T12:49:38.544Z,100910.77
2018-09-08T12:52:07.877Z,100913.02
2018-09-08T12:54:36.952Z,100904.06
2018-09-08T12:57:05.881Z,100909.06
2018-09-08T12:59:34.860Z,100908.20
2018-09-08T13:02:03.857Z,100916.56
2018-09-08T13:04:32.772Z,100924.23
2018-09-08T13:07:01.713Z,100918.09
2018-09-08T13:09:30.659Z,100914.71
2018-09-08T13:11:59.752Z,100913.25
2018-09-08T13:14:28.792Z,100914.42
2018-09-08T13:16:57.726Z,100915.22
2018-09-08T13:19:27.041Z,100914.97
2018-09-08T13:21:55.915Z,100918.78
2018-09-08T13:24:24.832Z,100926.72
2018-09-08T13:26:53.860Z,100928.17
2018-09-08T13:29:22.936Z,100924.82
2018-09-08T13:31:51.997Z,100920.24
2018-09-08T13:34:20.843Z,100922.29
2018-09-08T13:36:49.809Z,100909.69
2018-09-08T13:39:18.755Z,100909.82
2018-09-08T13:41:48.134Z,100907.95
2018-09-08T13:44:17.099Z,100914.39
2018-09-08T13:46:46.048Z,100907.00
2018-09-08T13:49:15.107Z,100893.41
2018-09-08T13:51:44.355Z,100890.38
2018-09-08T13:54:13.568Z,100898.34
2018-09-08T13:56:42.400Z,100903.56
2018-09-08T13:59:11.321Z,100916.23
2018-09-08T14:01:40.305Z,100925.97
2018-09-08T14:04:09.313Z,100927.64
2018-09-08T14:06:38.206Z,100928.20
2018-09-08T14:09:07.701Z,100932.62
2018-09-08T14:11:36.636Z,100935.16
2018-09-08T14:14:05.708Z,100944.43
2018-09-08T14:16:34.628Z,100951.77
2018-09-08T14:19:03.700Z,100950.27
2018-09-08T14:21:32.901Z,100948.95
2018-09-08T14:24:02.304Z,100957.28
2018-09-08T14:26:31.132Z,100949.52
2018-09-08T14:28:59.976Z,100953.41
2018-09-08T14:31:29.552Z,100950.76
2018-09-08T14:33:58.503Z,100948.88
2018-09-08T14:36:27.352Z,100952.72
2018-09-08T14:38:56.476Z,100948.33
2018-09-08T14:41:25.393Z,100957.26
2018-09-08T14:43:54.292Z,100962.31
2018-09-08T14:46:23.428Z,100971.08
2018-09-08T14:48:52.420Z,100967.86
2018-09-08T14:51:21.488Z,100973.27
2018-09-08T14:53:50.325Z,100967.38
2018-09-08T14:56:19.292Z,100962.86
2018-09-08T14:58:48.168Z,100962.59
2018-09-08T15:01:17.108Z,100959.42
2018-09-08T15:03:46.397Z,100957.16
2018-09-08T15:06:16.908Z,100957.03
2018-09-08T15:08:46.075Z,100955.45
2018-09-08T15:11:14.980Z,100946.86
2018-09-08T15:13:43.952Z,100940.91
2018-09-08T15:16:12.763Z,100942.98
2018-09-08T15:18:41.746Z,100955.03
2018-09-08T15:21:10.764Z,100950.47
2018-09-08T15:23:39.595Z,100956.77
2018-09-08T15:26:08.593Z,100956.27
2018-09-08T15:28:37.416Z,100956.84
2018-09-08T15:31:06.228Z,100958.98
2018-09-08T15:33:35.120Z,100961.98
2018-09-08T15:36:04.328Z,100963.59
2018-09-08T15:38:33.250Z,100959.09
2018-09-08T15:41:02.229Z,100954.79
2018-09-08T15:43:31.200Z,100949.25
2018-09-08T15:46:00.288Z,100947.66
2018-09-08T15:48:29.157Z,100949.13
2018-09-08T15:50:58.002Z,100950.84
2018-09-08T15:53:27.265Z,100949.94
2018-09-08T15:55:56.446Z,100940.53
2018-09-08T15:58:25.646Z,100949.58
2018-09-08T16:00:54.928Z,100953.39
2018-09-08T16:03:24.179Z,100949.70
2018-09-08T16:05:53.499Z,100953.31
2018-09-08T16:08:22.720Z,100967.28
2018-09-08T16:10:51.842Z,100975.74
2018-09-08T16:13:21.227Z,100970.69
2018-09-08T16:15:50.755Z,100979.44
2018-09-08T16:18:20.112Z,100977.92
2018-09-08T16:20:49.438Z,100983.58
2018-09-08T16:23:18.960Z,100988.94
2018-09-08T16:25:48.409Z,100997.59
2018-09-08T16:28:18.221Z,100996.80
2018-09-08T16:30:47.625Z,100997.20
2018-09-08T16:33:16.683Z,100989.27
2018-09-08T16:35:45.748Z,100989.35
2018-09-08T16:38:14.729Z,100986.14
2018-09-08T16:40:43.955Z,100983.75
2018-09-08T16:43:13.516Z,100987.30
2018-09-08T16:45:42.867Z,100989.80
2018-09-08T16:48:12.082Z,100996.45
2018-09-08T16:50:41.277Z,100996.91
2018-09-08T16:53:10.307Z,101003.07
2018-09-08T16:55:39.288Z,101004.98
2018-09-08T16:58:08.308Z,101008.26
2018-09-08T17:00:37.551Z,101018.12
2018-09-08T17:03:06.897Z,101019.65
2018-09-08T17:05:36.025Z,101024.41
2018-09-08T17:08:05.220Z,101020.30
2018-09-08T17:10:34.130Z,101021.47
2018-09-08T17:13:03.097Z,101031.64
2018-09-08T17:15:32.057Z,101024.85
2018-09-08T17:18:01.335Z,101027.97
2018-09-08T17:20:30.645Z,101030.04
2018-09-08T17:23:00.084Z,101035.60
2018-09-08T17:25:29.235Z,101046.81
2018-09-08T17:27:58.060Z,101045.92
2018-09-08T17:30:27.344Z,101048.59
2018-09-08T17:32:56.553Z,101044.44
2018-09-08T17:35:25.760Z,101049.48
2018-09-08T17:37:54.904Z,101045.64
2018-09-08T17:40:24.193Z,101045.21
2018-09-08T17:42:53.495Z,101049.88
2018-09-08T17:45:22.496Z,101057.16
2018-09-08T17:47:51.432Z,101066.39
2018-09-08T17:50:20.365Z,101077.77
2018-09-08T17:52:49.238Z,101080.78
2018-09-08T17:55:18.308Z,101085.98
2018-09-08T17:57:47.206Z,101091.22
2018-09-08T18:00:16.399Z,101092.24
2018-09-08T18:02:45.409Z,101089.34
2018-09-08T18:05:14.296Z,101093.33
2018-09-08T18:07:44.180Z,101092.30
2018-09-08T18:10:13.016Z,101088.47
2018-09-08T18:12:41.860Z,101096.77
2018-09-08T18:15:11.142Z,101103.97
2018-09-08T18:17:40.072Z,101113.94
2018-09-08T18:20:09.032Z,101126.34
2018-09-08T18:22:38.117Z,101128.60
2018-09-08T18:25:07.129Z,101130.48
2018-09-08T18:27:36.032Z,101133.44
2018-09-08T18:30:04.885Z,101140.97
2018-09-08T18:32:33.792Z,101139.18
2018-09-08T18:35:02.692Z,101135.91
2018-09-08T18:37:31.665Z,101136.55
2018-09-08T18:40:00.551Z,101140.31
2018-09-08T18:42:29.454Z,101148.38
2018-09-08T18:44:58.361Z,101139.75
2018-09-08T18:47:27.320Z,101139.61
2018-09-08T18:49:56.384Z,101136.59
2018-09-08T18:52:25.364Z,101128.87
2018-09-08T18:54:54.309Z,101132.91
2018-09-08T18:57:23.256Z,101137.44
2018-09-08T18:59:52.240Z,101139.73
2018-09-08T19:02:21.145Z,101148.03
2018-09-08T19:04:50.529Z,101150.38
2018-09-08T19:07:19.728Z,101146.02
2018-09-08T19:10:06.469Z,101144.97
2018-09-08T19:12:36.275Z,101137.30
2018-09-08T19:15:10.296Z,101146.08
2018-09-08T19:17:39.208Z,101140.23
2018-09-08T19:20:13.145Z,101136.33
2018-09-08T19:22:42.280Z,101141.03
2018-09-08T19:25:11.193Z,101134.96
2018-09-08T19:27:40.120Z,101136.00
2018-09-08T19:30:09.152Z,101133.58
2018-09-08T19:32:38.010Z,101129.80
2018-09-08T19:35:12.052Z,101123.26
2018-09-08T19:37:40.950Z,101124.41
2018-09-08T19:40:14.836Z,101129.60
2018-09-08T19:42:43.798Z,101123.02
2018-09-08T19:45:12.920Z,101122.67
2018-09-08T19:47:46.782Z,101127.56
2018-09-08T19:50:15.779Z,101125.48
2018-09-08T19:52:49.921Z,101128.41
2018-09-08T19:55:18.790Z,101121.54
2018-09-08T19:57:52.670Z,101127.19
2018-09-08T20:00:21.651Z,101126.73
2018-09-08T20:02:50.708Z,101120.63
2018-09-08T20:05:19.556Z,101124.14
2018-09-08T20:07:48.533Z,101121.58
2018-09-08T20:10:17.394Z,101117.47
2018-09-08T20:12:46.259Z,101112.76
2018-09-08T20:15:15.268Z,101117.06
2018-09-08T20:17:44.301Z,101113.59
2018-09-08T20:20:13.273Z,101109.48
2018-09-08T20:22:42.568Z,101113.81
2018-09-08T20:25:11.499Z,101115.53
2018-09-08T20:27:40.305Z,101116.09
2018-09-08T20:30:09.848Z,101114.06
2018-09-08T20:32:38.824Z,101121.47
2018-09-08T20:35:07.859Z,101119.08
2018-09-08T20:37:36.797Z,101119.98
2018-09-08T20:40:05.976Z,101125.52
2018-09-08T20:42:34.938Z,101120.46
2018-09-08T20:45:03.733Z,101117.48
2018-09-08T20:47:32.792Z,101122.45
2018-09-08T20:50:01.733Z,101120.92
2018-09-08T20:52:30.658Z,101119.08
2018-09-08T20:54:59.623Z,101123.75
2018-09-08T20:57:28.444Z,101128.99
2018-09-08T20:59:57.369Z,101129.95
2018-09-08T21:02:26.641Z,101125.82
2018-09-08T21:04:55.544Z,101119.67
2018-09-08T21:07:24.507Z,101121.75
2018-09-08T21:09:53.486Z,101125.70
2018-09-08T21:12:22.348Z,101125.76
2018-09-08T21:14:51.260Z,101128.52
2018-09-08T21:17:20.133Z,101130.64
2018-09-08T21:19:49.016Z,101131.08
2018-09-08T21:22:17.927Z,101128.87
2018-09-08T21:24:46.836Z,101126.23
2018-09-08T21:27:15.683Z,101127.34
2018-09-08T21:29:44.574Z,101123.64
2018-09-08T21:32:13.817Z,101117.27
2018-09-08T21:34:42.667Z,101122.66
2018-09-08T21:37:11.555Z,101116.31
2018-09-08T21:39:40.520Z,101114.66
2018-09-08T21:42:09.469Z,101121.80
2018-09-08T21:44:38.316Z,101117.40
2018-09-08T21:47:07.326Z,101114.09
2018-09-08T21:49:36.284Z,101121.62
2018-09-08T21:52:05.130Z,101118.56
2018-09-08T21:54:34.059Z,101126.50
2018-09-08T21:57:02.934Z,101127.69
2018-09-08T21:59:32.141Z,101131.98
2018-09-08T22:02:01.172Z,101124.65
2018-09-08T22:04:30.138Z,101122.67
2018-09-08T22:06:59.080Z,101126.91
2018-09-08T22:09:28.002Z,101122.97
2018-09-08T22:11:56.932Z,101127.88
2018-09-08T22:14:25.869Z,101134.27
2018-09-08T22:16:55.055Z,101132.48
2018-09-08T22:19:24.651Z,101132.98
2018-09-08T22:21:53.612Z,101130.72
2018-09-08T22:24:22.454Z,101128.17
2018-09-08T22:26:51.380Z,101128.17
2018-09-08T22:29:20.339Z,101128.17
2018-09-08T22:31:49.180Z,101124.36
2018-09-08T22:34:18.432Z,101123.00
2018-09-08T22:36:47.387Z,101124.94
2018-09-08T22:39:16.275Z,101127.77
2018-09-08T22:41:46.017Z,101137.07
2018-09-08T22:44:14.851Z,101126.67
2018-09-08T22:46:43.979Z,101118.53
2018-09-08T22:49:12.910Z,101127.22
2018-09-08T22:51:41.958Z,101122.98
2018-09-08T22:54:11.310Z,101123.98
2018-09-08T22:56:40.314Z,101124.17
2018-09-08T22:59:09.205Z,101133.75
2018-09-08T23:01:38.521Z,101134.70
2018-09-08T23:04:07.547Z,101135.69
2018-09-08T23:06:36.417Z,101132.48
2018-09-08T23:09:06.438Z,101130.53
2018-09-08T23:11:35.272Z,101130.79
2018-09-08T23:14:04.183Z,101121.59
2018-09-08T23:16:33.328Z,101129.14
2018-09-08T23:19:02.641Z,101119.21
2018-09-08T23:21:31.699Z,101123.34
2018-09-08T23:24:00.749Z,101108.66
2018-09-08T23:26:29.898Z,101115.30
2018-09-08T23:28:58.861Z,101113.45
2018-09-08T23:31:28.233Z,101113.33
2018-09-08T23:33:57.093Z,101115.77
2018-09-08T23:36:26.191Z,101118.98
2018-09-08T23:38:55.099Z,101125.95
2018-09-08T23:41:23.927Z,101120.30
2018-09-08T23:43:52.800Z,101114.21
2018-09-08T23:46:21.827Z,101112.05
2018-09-08T23:48:50.732Z,101109.80
2018-09-08T23:51:19.679Z,101106.16
2018-09-08T23:53:48.608Z,101112.87
2018-09-08T23:56:17.572Z,101110.17
2018-09-08T23:58:46.592Z,101113.19
